createdAt,value
2022-10-20T00:01:59.388Z,23.90
2022-10-20T00:04:26.145Z,24.65
2022-10-20T00:06:52.990Z,24.20
2022-10-20T00:09:20.018Z,24.10
2022-10-20T00:11:46.815Z,24.77
2022-10-20T00:14:13.557Z,24.93
2022-10-20T00:16:40.948Z,26.40
2022-10-20T00:19:07.924Z,26.65
2022-10-20T00:21:34.996Z,23.13
2022-10-20T00:24:03.093Z,26.45
2022-10-20T00:26:31.109Z,24.53
2022-10-20T00:28:58.092Z,23.17
2022-10-20T00:31:26.020Z,22.95
2022-10-20T00:33:53.637Z,27.50
2022-10-20T00:36:22.609Z,24.15
2022-10-20T00:38:50.448Z,25.17
2022-10-20T00:41:19.613Z,27.17
2022-10-20T00:43:54.608Z,29.88
2022-10-20T00:46:32.755Z,29.80
2022-10-20T00:49:08.588Z,25.60
2022-10-20T00:51:35.568Z,26.77
2022-10-20T00:54:16.675Z,27.15
2022-10-20T00:56:46.256Z,27.90
2022-10-20T00:59:15.942Z,29.00
2022-10-20T01:01:44.009Z,27.25
2022-10-20T01:04:11.512Z,27.27
2022-10-20T01:06:38.391Z,29.10
2022-10-20T01:09:06.113Z,24.98
2022-10-20T01:11:54.393Z,26.80
2022-10-20T01:14:41.493Z,27.00
2022-10-20T01:17:21.439Z,24.80
2022-10-20T01:20:16.629Z,33.95
2022-10-20T01:23:01.971Z,22.75
2022-10-20T01:25:50.216Z,21.33
2022-10-20T01:28:41.258Z,25.88
2022-10-20T01:31:20.571Z,27.17
2022-10-20T01:34:27.648Z,21.63
2022-10-20T01:37:02.812Z,21.90
2022-10-20T01:39:45.817Z,23.20
2022-10-20T01:42:19.936Z,20.42
2022-10-20T01:44:50.142Z,23.13
2022-10-20T01:47:18.737Z,23.15
2022-10-20T01:49:48.870Z,22.35
2022-10-20T01:52:15.968Z,23.63
2022-10-20T01:54:43.170Z,20.48
2022-10-20T01:57:51.449Z,25.67
2022-10-20T02:00:18.595Z,22.20
2022-10-20T02:03:04.197Z,20.92
2022-10-20T02:05:49.385Z,22.05
2022-10-20T02:08:51.274Z,20.35
2022-10-20T02:11:25.460Z,24.00
2022-10-20T02:13:54.891Z,20.10
2022-10-20T02:16:29.888Z,26.73
2022-10-20T02:21:26.018Z,20.35
2022-10-20T02:23:54.956Z,17.93
2022-10-20T02:26:24.790Z,25.60
2022-10-20T02:29:00.716Z,21.67
2022-10-20T02:31:28.305Z,21.75
2022-10-20T02:33:56.794Z,20.05
2022-10-20T02:36:27.557Z,21.10
2022-10-20T02:38:54.677Z,20.35
2022-10-20T02:41:21.984Z,19.30
2022-10-20T02:43:48.704Z,20.73
2022-10-20T02:48:42.413Z,21.90
2022-10-20T02:51:09.290Z,20.60
2022-10-20T02:53:36.188Z,18.92
2022-10-20T02:56:03.338Z,20.88
2022-10-20T02:58:30.136Z,22.77
2022-10-20T03:00:57.068Z,21.30
2022-10-20T03:03:24.053Z,24.20
2022-10-20T03:05:50.817Z,20.02
2022-10-20T03:08:18.022Z,19.52
2022-10-20T03:10:44.894Z,20.02
2022-10-20T03:13:11.731Z,23.80
2022-10-20T03:15:38.709Z,26.52
2022-10-20T03:18:05.688Z,23.60
2022-10-20T03:20:33.455Z,20.63
2022-10-20T03:23:00.427Z,17.35
2022-10-20T03:25:27.299Z,18.70
2022-10-20T03:27:54.012Z,19.38
2022-10-20T03:30:20.901Z,19.40
2022-10-20T03:32:48.856Z,19.15
2022-10-20T03:35:15.931Z,21.58
2022-10-20T03:37:42.811Z,19.67
2022-10-20T03:40:09.997Z,20.73
2022-10-20T03:42:37.343Z,19.23
2022-10-20T03:45:04.969Z,19.17
2022-10-20T03:47:31.772Z,23.20
2022-10-20T03:49:58.627Z,21.07
2022-10-20T03:52:25.571Z,20.65
2022-10-20T03:54:52.315Z,20.48
2022-10-20T03:57:20.333Z,20.65
2022-10-20T03:59:47.430Z,22.27
2022-10-20T04:02:28.622Z,22.10
2022-10-20T04:04:55.493Z,22.50
2022-10-20T04:07:22.259Z,22.40
2022-10-20T04:09:49.216Z,22.38
2022-10-20T04:12:16.248Z,21.38
2022-10-20T04:14:43.008Z,22.70
2022-10-20T04:17:10.268Z,21.48
2022-10-20T04:19:37.176Z,20.50
2022-10-20T04:22:03.934Z,19.98
2022-10-20T04:24:30.912Z,27.90
2022-10-20T04:26:58.028Z,23.63
2022-10-20T04:29:25.051Z,26.92
2022-10-20T04:31:51.973Z,22.83
2022-10-20T04:34:18.952Z,21.70
2022-10-20T04:36:45.769Z,23.23
2022-10-20T04:39:12.570Z,22.63
2022-10-20T04:41:39.709Z,22.13
2022-10-20T04:44:06.491Z,21.30
2022-10-20T04:46:33.379Z,24.13
2022-10-20T04:49:00.499Z,34.15
2022-10-20T04:51:27.335Z,25.80
2022-10-20T04:53:54.507Z,24.88
2022-10-20T04:56:22.216Z,21.73
2022-10-20T04:58:54.334Z,24.45
2022-10-20T05:01:25.940Z,22.20
2022-10-20T05:03:52.717Z,20.47
2022-10-20T05:06:25.572Z,21.08
2022-10-20T05:08:54.513Z,22.65
2022-10-20T05:11:23.891Z,19.85
2022-10-20T05:13:51.249Z,21.73
2022-10-20T05:16:18.523Z,22.03
2022-10-20T05:18:46.422Z,23.23
2022-10-20T05:21:22.050Z,21.00
2022-10-20T05:23:49.328Z,20.73
2022-10-20T05:26:18.815Z,23.70
2022-10-20T05:28:47.973Z,30.47
2022-10-20T05:31:16.690Z,23.70
2022-10-20T05:33:49.061Z,24.67
2022-10-20T05:36:21.050Z,20.92
2022-10-20T05:38:49.758Z,29.20
2022-10-20T05:41:19.586Z,20.50
2022-10-20T05:43:50.878Z,24.90
2022-10-20T05:46:18.994Z,20.70
2022-10-20T05:48:47.332Z,23.17
2022-10-20T05:51:15.600Z,19.02
2022-10-20T05:53:43.852Z,21.87
2022-10-20T05:56:13.346Z,22.60
2022-10-20T05:58:40.689Z,25.40
2022-10-20T06:01:09.289Z,21.50
2022-10-20T06:03:36.675Z,21.65
2022-10-20T06:06:04.614Z,22.53
2022-10-20T06:08:33.378Z,25.25
2022-10-20T06:11:08.598Z,21.63
2022-10-20T06:13:36.009Z,17.85
2022-10-20T06:16:04.981Z,19.05
2022-10-20T06:18:32.368Z,22.77
2022-10-20T06:21:04.780Z,34.35
2022-10-20T06:23:31.769Z,28.02
2022-10-20T06:26:06.288Z,24.70
2022-10-20T06:28:34.381Z,21.50
2022-10-20T06:31:14.220Z,19.37
2022-10-20T06:33:41.657Z,24.50
2022-10-20T06:36:09.623Z,33.22
2022-10-20T06:38:37.493Z,25.23
2022-10-20T06:41:10.387Z,29.23
2022-10-20T06:43:37.370Z,27.57
2022-10-20T06:46:11.397Z,24.67
2022-10-20T06:48:39.377Z,33.75
2022-10-20T06:51:17.790Z,21.13
2022-10-20T06:53:46.830Z,21.15
2022-10-20T06:56:16.576Z,24.83
2022-10-20T06:58:44.975Z,27.27
2022-10-20T07:01:18.415Z,27.45
2022-10-20T07:03:47.854Z,23.13
2022-10-20T07:06:17.702Z,27.42
2022-10-20T07:08:45.169Z,26.23
2022-10-20T07:11:18.258Z,24.77
2022-10-20T07:13:45.572Z,18.42
2022-10-20T07:16:15.303Z,18.08
2022-10-20T07:21:15.488Z,19.53
2022-10-20T07:23:42.775Z,22.80
2022-10-20T07:26:12.492Z,21.42
2022-10-20T07:28:45.071Z,23.92
2022-10-20T07:31:18.091Z,30.23
2022-10-20T07:33:56.515Z,23.07
2022-10-20T07:36:35.861Z,31.38
2022-10-20T07:39:05.716Z,19.52
2022-10-20T07:41:33.476Z,29.80
2022-10-20T07:44:00.532Z,21.13
2022-10-20T07:46:27.437Z,20.03
2022-10-20T07:48:54.181Z,16.08
2022-10-20T07:51:28.649Z,23.48
2022-10-20T07:54:00.691Z,16.90
2022-10-20T07:56:30.346Z,30.20
2022-10-20T07:58:57.707Z,21.33
2022-10-20T08:01:24.780Z,19.70
2022-10-20T08:03:51.980Z,34.50
2022-10-20T08:06:23.330Z,19.52
2022-10-20T08:08:50.151Z,20.85
2022-10-20T08:11:17.253Z,15.57
2022-10-20T08:13:44.535Z,21.15
2022-10-20T08:16:26.199Z,16.73
2022-10-20T08:21:33.784Z,14.80
2022-10-20T08:24:00.932Z,14.83
2022-10-20T08:26:27.609Z,13.95
2022-10-20T08:28:55.336Z,14.45
2022-10-20T08:31:22.715Z,14.25
2022-10-20T08:33:52.576Z,14.15
2022-10-20T08:36:20.798Z,23.93
2022-10-20T08:38:48.368Z,17.95
2022-10-20T08:41:20.788Z,14.02
2022-10-20T08:43:50.696Z,11.80
2022-10-20T08:46:20.973Z,14.90
2022-10-20T08:48:48.453Z,12.83
2022-10-20T08:51:21.737Z,12.85
2022-10-20T08:53:51.696Z,12.80
2022-10-20T08:56:23.134Z,12.38
2022-10-20T08:58:50.380Z,13.00
2022-10-20T09:01:25.223Z,10.47
2022-10-20T09:03:58.896Z,9.40
2022-10-20T09:06:25.973Z,12.65
2022-10-20T09:08:54.847Z,13.18
2022-10-20T09:11:27.678Z,10.73
2022-10-20T09:13:54.918Z,10.50
2022-10-20T09:16:40.986Z,11.73
2022-10-20T09:19:27.892Z,11.23
2022-10-20T09:22:05.815Z,11.25
2022-10-20T09:24:35.968Z,11.40
2022-10-20T09:27:34.533Z,10.80
2022-10-20T09:30:31.813Z,9.70
2022-10-20T09:32:59.407Z,9.07
2022-10-20T09:35:33.258Z,9.23
2022-10-20T09:38:26.253Z,8.15
2022-10-20T09:41:06.283Z,8.57
2022-10-20T09:43:33.393Z,9.15
2022-10-20T09:46:06.808Z,8.85
2022-10-20T09:48:38.622Z,8.13
2022-10-20T09:53:59.469Z,7.03
2022-10-20T09:56:35.853Z,8.57
2022-10-20T09:59:21.092Z,8.43
2022-10-20T10:02:02.700Z,7.60
2022-10-20T10:04:41.419Z,7.90
2022-10-20T10:07:34.574Z,9.30
2022-10-20T10:10:18.278Z,9.38
2022-10-20T10:12:56.551Z,10.93
2022-10-20T10:15:23.539Z,10.80
2022-10-20T10:17:51.218Z,6.75
2022-10-20T10:20:18.091Z,7.70
2022-10-20T10:22:45.545Z,8.20
2022-10-20T10:25:30.416Z,6.78
2022-10-20T10:28:05.292Z,14.32
2022-10-20T10:30:33.981Z,6.32
2022-10-20T10:33:01.289Z,6.10
2022-10-20T10:35:34.210Z,8.77
2022-10-20T10:38:01.394Z,6.75
2022-10-20T10:40:41.294Z,7.15
2022-10-20T10:43:13.755Z,7.50
2022-10-20T10:45:45.657Z,8.50
2022-10-20T10:48:50.352Z,7.78
2022-10-20T10:51:36.049Z,6.28
2022-10-20T10:54:18.678Z,8.82
2022-10-20T10:56:51.774Z,6.43
2022-10-20T10:59:26.013Z,8.23
2022-10-20T11:02:02.271Z,6.28
2022-10-20T11:04:31.814Z,7.18
2022-10-20T11:07:26.012Z,6.88
2022-10-20T11:10:18.771Z,6.05
2022-10-20T11:13:02.933Z,13.53
2022-10-20T11:15:38.531Z,7.55
2022-10-20T11:18:19.808Z,8.23
2022-10-20T11:21:00.538Z,8.10
2022-10-20T11:23:48.358Z,6.88
2022-10-20T11:26:40.689Z,8.40
2022-10-20T11:29:27.979Z,7.57
2022-10-20T11:32:14.627Z,13.30
2022-10-20T11:34:54.529Z,9.07
2022-10-20T11:37:40.220Z,10.57
2022-10-20T11:40:10.078Z,10.63
2022-10-20T11:42:43.729Z,7.53
2022-10-20T11:45:28.540Z,7.70
2022-10-20T11:48:09.152Z,7.32
2022-10-20T11:50:36.335Z,7.68
2022-10-20T11:53:22.053Z,7.53
2022-10-20T11:56:15.540Z,7.07
2022-10-20T11:58:45.423Z,7.38
2022-10-20T12:02:05.215Z,6.25
2022-10-20T12:05:19.641Z,5.93
2022-10-20T12:08:29.024Z,7.07
2022-10-20T12:11:36.783Z,6.88
2022-10-20T12:14:24.617Z,8.52
2022-10-20T12:16:54.542Z,6.32
2022-10-20T12:19:29.981Z,7.82
2022-10-20T12:22:06.850Z,7.30
2022-10-20T12:24:40.463Z,5.22
2022-10-20T12:27:08.167Z,6.47
2022-10-20T12:29:34.975Z,6.25
2022-10-20T12:32:20.510Z,6.93
2022-10-20T12:35:20.296Z,5.90
2022-10-20T12:37:59.419Z,6.18
2022-10-20T12:40:33.452Z,6.43
2022-10-20T12:43:00.877Z,7.60
2022-10-20T12:45:42.271Z,6.95
2022-10-20T12:48:23.023Z,8.73
2022-10-20T12:50:51.279Z,6.88
2022-10-20T12:53:18.064Z,5.47
2022-10-20T12:55:54.300Z,5.38
2022-10-20T12:58:21.017Z,5.63
2022-10-20T13:00:48.033Z,5.27
2022-10-20T13:03:47.434Z,5.82
2022-10-20T13:06:23.306Z,4.80
2022-10-20T13:09:05.795Z,4.95
2022-10-20T13:11:42.370Z,6.80
2022-10-20T13:14:27.418Z,5.43
2022-10-20T13:17:29.980Z,5.47
2022-10-20T13:20:16.676Z,8.45
2022-10-20T13:22:57.220Z,7.55
2022-10-20T13:25:36.109Z,8.35
2022-10-20T13:28:27.538Z,8.23
2022-10-20T13:31:21.877Z,14.50
2022-10-20T13:34:10.018Z,9.35
2022-10-20T13:37:01.571Z,6.22
2022-10-20T13:39:46.754Z,11.85
2022-10-20T13:42:25.696Z,12.33
2022-10-20T13:45:07.862Z,5.63
2022-10-20T13:47:55.937Z,7.22
2022-10-20T13:50:24.250Z,10.00
2022-10-20T13:52:54.869Z,6.13
2022-10-20T13:55:27.774Z,6.87
2022-10-20T13:58:04.612Z,6.95
2022-10-20T14:00:33.929Z,8.50
2022-10-20T14:03:02.969Z,5.47
2022-10-20T14:05:36.717Z,7.50
2022-10-20T14:08:08.742Z,6.17
2022-10-20T14:10:58.072Z,7.50
2022-10-20T14:13:28.770Z,6.18
2022-10-20T14:15:57.798Z,7.10
2022-10-20T14:18:30.340Z,6.35
2022-10-20T14:21:06.712Z,6.57
2022-10-20T14:23:40.553Z,5.82
2022-10-20T14:26:14.413Z,5.70
2022-10-20T14:28:43.775Z,8.82
2022-10-20T14:31:11.578Z,10.55
2022-10-20T14:33:44.313Z,7.77
2022-10-20T14:36:31.348Z,5.95
2022-10-20T14:38:59.786Z,13.63
2022-10-20T14:41:33.183Z,6.82
2022-10-20T14:46:56.791Z,7.40
2022-10-20T14:49:30.145Z,8.27
2022-10-20T14:52:05.034Z,6.10
2022-10-20T14:54:37.732Z,8.95
2022-10-20T14:57:07.992Z,6.70
2022-10-20T14:59:37.250Z,6.87
2022-10-20T15:02:13.477Z,9.05
2022-10-20T15:04:42.457Z,7.28
2022-10-20T15:07:19.476Z,8.23
2022-10-20T15:10:06.176Z,10.63
2022-10-20T15:12:40.859Z,7.60
2022-10-20T15:15:10.529Z,10.02
2022-10-20T15:17:51.049Z,9.52
2022-10-20T15:20:37.814Z,5.82
2022-10-20T15:23:34.061Z,6.93
2022-10-20T15:26:05.977Z,13.97
2022-10-20T15:28:47.405Z,6.00
2022-10-20T15:31:14.297Z,5.60
2022-10-20T15:33:41.740Z,6.95
2022-10-20T15:36:17.819Z,8.32
2022-10-20T15:38:45.299Z,7.73
2022-10-20T15:41:24.331Z,12.85
2022-10-20T15:43:51.152Z,7.90
2022-10-20T15:46:18.942Z,6.72
2022-10-20T15:48:46.258Z,6.85
2022-10-20T15:51:33.938Z,7.97
2022-10-20T15:54:01.854Z,15.57
2022-10-20T15:56:29.103Z,14.23
2022-10-20T15:58:56.056Z,10.40
2022-10-20T16:01:22.946Z,7.78
2022-10-20T16:03:50.143Z,10.03
2022-10-20T16:06:18.652Z,16.65
2022-10-20T16:08:48.427Z,13.25
2022-10-20T16:11:17.577Z,14.70
2022-10-20T16:13:44.866Z,12.00
2022-10-20T16:16:17.660Z,10.40
2022-10-20T16:18:44.659Z,10.02
2022-10-20T16:21:11.821Z,13.07
2022-10-20T16:23:42.321Z,13.25
2022-10-20T16:26:13.176Z,12.77
2022-10-20T16:28:40.697Z,10.87
2022-10-20T16:31:13.009Z,10.80
2022-10-20T16:33:39.933Z,10.35
2022-10-20T16:36:09.986Z,9.15
2022-10-20T16:38:40.085Z,10.40
2022-10-20T16:41:10.100Z,12.23
2022-10-20T16:43:40.933Z,9.43
2022-10-20T16:46:09.196Z,9.18
2022-10-20T16:48:37.804Z,9.88
2022-10-20T16:51:06.997Z,10.25
2022-10-20T16:53:34.748Z,12.03
2022-10-20T16:56:01.668Z,10.18
2022-10-20T16:58:28.891Z,9.57
2022-10-20T17:01:04.576Z,10.38
2022-10-20T17:03:31.672Z,8.65
2022-10-20T17:06:01.290Z,12.87
2022-10-20T17:08:28.837Z,20.52
2022-10-20T17:11:00.813Z,12.65
2022-10-20T17:13:28.229Z,12.85
2022-10-20T17:15:55.700Z,12.30
2022-10-20T17:18:24.027Z,11.73
2022-10-20T17:20:56.812Z,10.65
2022-10-20T17:23:24.569Z,9.68
2022-10-20T17:25:53.631Z,10.02
2022-10-20T17:28:21.220Z,16.25
2022-10-20T17:30:48.840Z,13.20
2022-10-20T17:33:16.329Z,14.73
2022-10-20T17:35:48.340Z,14.48
2022-10-20T17:38:15.357Z,13.10
2022-10-20T17:40:42.378Z,13.23
2022-10-20T17:43:09.775Z,12.40
2022-10-20T17:45:38.187Z,14.48
2022-10-20T17:48:05.831Z,13.35
2022-10-20T17:50:33.219Z,16.00
2022-10-20T17:53:00.650Z,18.55
2022-10-20T17:55:28.130Z,8.60
2022-10-20T17:57:55.973Z,11.18
2022-10-20T18:00:37.503Z,10.52
2022-10-20T18:03:09.753Z,8.07
2022-10-20T18:05:36.737Z,12.50
2022-10-20T18:08:03.656Z,12.90
2022-10-20T18:10:30.580Z,12.00
2022-10-20T18:12:57.348Z,11.00
2022-10-20T18:15:24.101Z,12.77
2022-10-20T18:17:51.036Z,14.07
2022-10-20T18:20:18.014Z,13.23
2022-10-20T18:22:45.060Z,16.20
2022-10-20T18:25:12.386Z,24.85
2022-10-20T18:27:39.311Z,20.70
2022-10-20T18:30:07.012Z,51.33
2022-10-20T18:32:35.639Z,29.67
2022-10-20T18:35:02.898Z,40.25
2022-10-20T18:37:29.659Z,62.30
2022-10-20T18:39:56.813Z,65.40
2022-10-20T18:42:23.634Z,35.25
2022-10-20T18:44:50.455Z,66.43
2022-10-20T18:47:17.455Z,36.85
2022-10-20T18:49:44.282Z,44.60
2022-10-20T18:52:11.029Z,36.92
2022-10-20T18:54:38.332Z,28.02
2022-10-20T18:57:05.137Z,31.17
2022-10-20T18:59:31.975Z,29.88
2022-10-20T19:01:58.872Z,27.10
2022-10-20T19:04:25.692Z,20.83
2022-10-20T19:06:52.581Z,23.75
2022-10-20T19:09:21.564Z,21.33
2022-10-20T19:14:17.411Z,15.18
2022-10-20T19:16:45.737Z,15.60
2022-10-20T19:19:13.133Z,15.77
2022-10-20T19:21:40.140Z,14.33
2022-10-20T19:24:14.410Z,17.33
2022-10-20T19:26:57.244Z,20.50
2022-10-20T19:29:34.780Z,17.45
2022-10-20T19:32:02.778Z,17.45
2022-10-20T19:34:38.240Z,14.80
2022-10-20T19:37:06.052Z,15.73
2022-10-20T19:39:36.374Z,19.25
2022-10-20T19:42:05.790Z,14.88
2022-10-20T19:44:32.855Z,16.15
2022-10-20T19:46:59.874Z,13.43
2022-10-20T19:49:26.925Z,13.88
2022-10-20T19:51:54.018Z,14.55
2022-10-20T19:54:21.466Z,15.07
2022-10-20T19:56:48.577Z,14.73
2022-10-20T19:59:15.540Z,15.67
2022-10-20T20:01:43.068Z,9.18
2022-10-20T20:04:10.058Z,11.52
2022-10-20T20:06:37.080Z,19.95
2022-10-20T20:09:07.548Z,7.95
2022-10-20T20:11:35.977Z,16.77
2022-10-20T20:14:06.347Z,13.68
2022-10-20T20:16:33.306Z,12.50
2022-10-20T20:19:00.378Z,13.75
2022-10-20T20:21:27.599Z,14.30
2022-10-20T20:23:59.221Z,18.63
2022-10-20T20:26:28.423Z,14.02
2022-10-20T20:28:56.978Z,17.80
2022-10-20T20:31:24.689Z,17.05
2022-10-20T20:33:52.339Z,23.35
2022-10-20T20:36:20.493Z,26.57
2022-10-20T20:38:48.201Z,23.27
2022-10-20T20:41:17.388Z,18.40
2022-10-20T20:43:44.937Z,23.27
2022-10-20T20:46:18.307Z,21.52
2022-10-20T20:48:46.090Z,20.83
2022-10-20T20:51:14.215Z,21.10
2022-10-20T20:53:41.520Z,21.60
2022-10-20T20:56:13.134Z,13.75
2022-10-20T20:58:40.892Z,16.35
2022-10-20T21:01:09.345Z,16.77
2022-10-20T21:03:37.013Z,18.35
2022-10-20T21:06:12.223Z,28.63
2022-10-20T21:08:45.161Z,21.30
2022-10-20T21:11:13.812Z,21.17
2022-10-20T21:13:42.057Z,14.03
2022-10-20T21:16:10.490Z,13.65
2022-10-20T21:18:38.384Z,11.57
2022-10-20T21:21:32.688Z,13.18
2022-10-20T21:24:01.377Z,17.33
2022-10-20T21:26:29.203Z,10.93
2022-10-20T21:28:57.863Z,11.52
2022-10-20T21:31:26.425Z,13.10
2022-10-20T21:33:56.181Z,15.02
2022-10-20T21:36:24.159Z,13.10
2022-10-20T21:38:51.545Z,14.80
2022-10-20T21:41:21.149Z,10.90
2022-10-20T21:43:51.187Z,10.00
2022-10-20T21:46:27.386Z,9.82
2022-10-20T21:48:59.482Z,11.35
2022-10-20T21:51:32.296Z,12.30
2022-10-20T21:54:02.097Z,11.07
2022-10-20T21:56:33.778Z,13.45
2022-10-20T21:59:00.597Z,12.30
2022-10-20T22:01:27.665Z,11.57
2022-10-20T22:03:55.321Z,11.13
2022-10-20T22:06:26.413Z,11.38
2022-10-20T22:08:56.098Z,11.55
2022-10-20T22:11:24.377Z,12.82
2022-10-20T22:13:51.812Z,16.42
2022-10-20T22:16:22.517Z,15.13
2022-10-20T22:18:55.001Z,16.70
2022-10-20T22:21:21.873Z,20.55
2022-10-20T22:23:51.779Z,23.30
2022-10-20T22:26:18.790Z,20.67
2022-10-20T22:28:45.723Z,20.30
2022-10-20T22:31:14.621Z,25.65
2022-10-20T22:33:44.363Z,19.60
2022-10-20T22:36:11.236Z,18.52
2022-10-20T22:38:38.093Z,20.90
2022-10-20T22:41:05.239Z,15.00
2022-10-20T22:43:32.381Z,15.02
2022-10-20T22:45:59.327Z,12.27
2022-10-20T22:48:26.405Z,14.65
2022-10-20T22:50:53.327Z,16.23
2022-10-20T22:53:20.230Z,13.73
2022-10-20T22:55:47.282Z,12.85
2022-10-20T22:58:14.055Z,15.30
2022-10-20T23:00:43.148Z,14.13
2022-10-20T23:03:10.575Z,22.42
2022-10-20T23:05:37.482Z,19.73
2022-10-20T23:08:05.209Z,21.75
2022-10-20T23:10:32.569Z,17.20
2022-10-20T23:12:59.276Z,21.67
2022-10-20T23:15:26.151Z,20.23
2022-10-20T23:17:52.934Z,18.90
2022-10-20T23:20:19.847Z,17.73
2022-10-20T23:22:46.856Z,17.35
2022-10-20T23:25:13.877Z,20.40
2022-10-20T23:27:40.736Z,17.80
2022-10-20T23:30:08.551Z,17.47
2022-10-20T23:32:35.436Z,17.30
2022-10-20T23:35:02.281Z,16.27
2022-10-20T23:37:29.354Z,19.42
2022-10-20T23:39:56.292Z,15.60
2022-10-20T23:42:23.136Z,16.50
2022-10-20T23:44:50.367Z,17.48
2022-10-20T23:47:17.738Z,16.42
2022-10-20T23:49:44.686Z,15.88
2022-10-20T23:52:11.957Z,17.13
2022-10-20T23:54:38.893Z,14.93
2022-10-20T23:57:05.797Z,14.50
2022-10-20T23:59:32.959Z,17.10
